createdAt,value
2022-11-27T00:00:18.665Z,42.97
2022-11-27T00:02:46.962Z,42.53
2022-11-27T00:05:15.227Z,44.67
2022-11-27T00:07:43.521Z,39.80
2022-11-27T00:10:12.317Z,40.97
2022-11-27T00:12:40.435Z,43.33
2022-11-27T00:15:12.310Z,41.03
2022-11-27T00:17:44.159Z,39.90
2022-11-27T00:20:12.818Z,39.83
2022-11-27T00:22:40.936Z,41.10
2022-11-27T00:25:09.642Z,38.80
2022-11-27T00:27:37.768Z,43.83
2022-11-27T00:30:06.680Z,42.10
2022-11-27T00:32:34.756Z,43.10
2022-11-27T00:35:04.707Z,41.90
2022-11-27T00:37:32.873Z,39.00
2022-11-27T00:40:01.058Z,40.73
2022-11-27T00:42:29.173Z,38.27
2022-11-27T00:44:57.298Z,38.43
2022-11-27T00:47:25.369Z,40.93
2022-11-27T00:49:53.516Z,37.20
2022-11-27T00:52:22.976Z,39.70
2022-11-27T00:54:51.519Z,38.57
2022-11-27T00:57:19.694Z,41.43
2022-11-27T00:59:47.731Z,40.03
2022-11-27T01:02:15.874Z,38.07
2022-11-27T01:04:46.554Z,39.67
2022-11-27T01:07:14.601Z,38.40
2022-11-27T01:09:44.096Z,39.63
2022-11-27T01:12:12.126Z,38.63
2022-11-27T01:14:40.454Z,43.07
2022-11-27T01:17:08.690Z,42.37
2022-11-27T01:19:36.752Z,41.30
2022-11-27T01:22:04.824Z,42.57
2022-11-27T01:24:32.870Z,38.60
2022-11-27T01:27:02.292Z,42.17
2022-11-27T01:29:30.414Z,39.17
2022-11-27T01:31:58.500Z,44.67
2022-11-27T01:34:26.559Z,42.50
2022-11-27T01:36:54.913Z,43.63
2022-11-27T01:39:24.211Z,46.03
2022-11-27T01:41:52.295Z,46.37
2022-11-27T01:44:51.078Z,42.43
2022-11-27T01:47:29.151Z,46.60
2022-11-27T01:49:59.275Z,38.20
2022-11-27T01:52:28.593Z,44.93
2022-11-27T01:54:57.718Z,42.10
2022-11-27T01:57:28.346Z,43.37
2022-11-27T01:59:58.824Z,44.33
2022-11-27T02:02:27.222Z,45.40
2022-11-27T02:04:55.485Z,43.97
2022-11-27T02:07:23.679Z,44.33
2022-11-27T02:09:51.755Z,43.80
2022-11-27T02:12:25.428Z,46.10
2022-11-27T02:15:00.132Z,45.37
2022-11-27T02:17:31.476Z,49.50
2022-11-27T02:20:12.016Z,50.63
2022-11-27T02:22:47.079Z,46.50
2022-11-27T02:25:22.766Z,51.47
2022-11-27T02:28:15.374Z,55.43
2022-11-27T02:30:47.312Z,51.30
2022-11-27T02:33:15.582Z,46.47
2022-11-27T02:35:47.408Z,48.60
2022-11-27T02:38:16.608Z,48.93
2022-11-27T02:40:47.872Z,52.23
2022-11-27T02:43:17.071Z,47.57
2022-11-27T02:45:47.447Z,51.10
2022-11-27T02:48:16.589Z,50.10
2022-11-27T02:50:45.543Z,47.60
2022-11-27T02:53:14.614Z,51.87
2022-11-27T02:55:42.668Z,44.07
2022-11-27T02:58:13.542Z,50.93
2022-11-27T03:00:41.913Z,52.10
2022-11-27T03:03:11.796Z,51.07
2022-11-27T03:05:41.526Z,48.73
2022-11-27T03:08:11.355Z,45.70
2022-11-27T03:10:44.328Z,49.47
2022-11-27T03:13:12.450Z,46.37
2022-11-27T03:15:42.792Z,50.10
2022-11-27T03:18:15.323Z,47.97
2022-11-27T03:20:43.342Z,46.53
2022-11-27T03:23:11.376Z,50.70
2022-11-27T03:25:39.424Z,49.13
2022-11-27T03:28:08.979Z,53.73
2022-11-27T03:30:37.045Z,53.50
2022-11-27T03:33:05.192Z,58.17
2022-11-27T03:35:34.603Z,60.63
2022-11-27T03:38:02.865Z,57.53
2022-11-27T03:40:34.136Z,60.53
2022-11-27T03:43:05.307Z,57.40
2022-11-27T03:45:36.264Z,58.20
2022-11-27T03:48:11.941Z,58.43
2022-11-27T03:50:47.529Z,57.27
2022-11-27T03:53:20.187Z,52.73
2022-11-27T03:55:50.767Z,53.03
2022-11-27T03:58:22.150Z,52.57
2022-11-27T04:00:50.881Z,54.20
2022-11-27T04:03:24.091Z,56.47
2022-11-27T04:05:53.555Z,54.90
2022-11-27T04:08:21.660Z,61.67
2022-11-27T04:10:49.728Z,55.77
2022-11-27T04:13:17.874Z,51.57
2022-11-27T04:15:45.965Z,46.23
2022-11-27T04:18:14.143Z,46.10
2022-11-27T04:20:42.165Z,47.20
2022-11-27T04:23:11.587Z,45.90
2022-11-27T04:25:39.673Z,41.57
2022-11-27T04:28:07.742Z,43.37
2022-11-27T04:30:35.812Z,49.27
2022-11-27T04:33:03.853Z,43.83
2022-11-27T04:35:31.939Z,38.00
2022-11-27T04:38:00.010Z,40.47
2022-11-27T04:40:29.527Z,42.07
2022-11-27T04:42:57.626Z,43.20
2022-11-27T04:45:25.685Z,44.57
2022-11-27T04:47:53.812Z,43.33
2022-11-27T04:50:21.895Z,43.90
2022-11-27T04:52:49.950Z,42.53
2022-11-27T04:55:18.071Z,39.43
2022-11-27T04:57:47.569Z,44.10
2022-11-27T05:00:16.309Z,46.67
2022-11-27T05:02:44.501Z,48.87
2022-11-27T05:05:12.627Z,47.10
2022-11-27T05:07:40.697Z,45.53
2022-11-27T05:10:10.011Z,41.03
2022-11-27T05:12:38.139Z,52.03
2022-11-27T05:15:09.292Z,48.90
2022-11-27T05:17:37.580Z,53.87
2022-11-27T05:20:06.774Z,55.00
2022-11-27T05:22:34.820Z,55.30
2022-11-27T05:25:02.985Z,52.20
2022-11-27T05:27:31.112Z,56.73
2022-11-27T05:29:59.168Z,55.67
2022-11-27T05:32:28.671Z,49.60
2022-11-27T05:34:56.733Z,57.17
2022-11-27T05:37:24.851Z,57.40
2022-11-27T05:39:52.886Z,65.57
2022-11-27T05:42:20.993Z,66.03
2022-11-27T05:44:51.682Z,62.20
2022-11-27T05:47:22.122Z,62.73
2022-11-27T05:49:51.647Z,66.10
2022-11-27T05:52:19.784Z,72.23
2022-11-27T05:54:47.927Z,64.93
2022-11-27T05:57:16.024Z,66.37
2022-11-27T05:59:44.089Z,71.27
2022-11-27T06:02:16.669Z,67.03
2022-11-27T06:04:48.828Z,67.40
2022-11-27T06:07:18.410Z,66.73
2022-11-27T06:09:46.587Z,75.30
2022-11-27T06:12:14.686Z,78.07
2022-11-27T06:14:42.987Z,72.53
2022-11-27T06:17:11.291Z,69.07
2022-11-27T06:19:39.346Z,75.67
2022-11-27T06:22:07.501Z,73.80
2022-11-27T06:24:36.959Z,72.73
2022-11-27T06:27:05.164Z,78.80
2022-11-27T06:29:33.222Z,71.40
2022-11-27T06:32:01.464Z,74.77
2022-11-27T06:34:29.527Z,80.87
2022-11-27T06:36:57.703Z,76.37
2022-11-27T06:39:26.016Z,76.93
2022-11-27T06:41:55.491Z,76.17
2022-11-27T06:44:23.550Z,86.53
2022-11-27T06:46:51.577Z,84.50
2022-11-27T06:49:20.746Z,85.30
2022-11-27T06:51:50.001Z,99.37
2022-11-27T06:54:18.076Z,93.20
2022-11-27T06:56:46.170Z,95.37
2022-11-27T06:59:15.720Z,101.27
2022-11-27T07:01:43.868Z,108.03
2022-11-27T07:04:12.149Z,99.70
2022-11-27T07:06:40.340Z,91.37
2022-11-27T07:09:08.527Z,82.97
2022-11-27T07:11:36.586Z,87.37
2022-11-27T07:14:05.292Z,78.77
2022-11-27T07:16:35.752Z,104.67
2022-11-27T07:19:05.409Z,98.20
2022-11-27T07:21:33.518Z,91.00
2022-11-27T07:24:02.111Z,80.30
2022-11-27T07:26:30.953Z,90.47
2022-11-27T07:28:59.108Z,85.90
2022-11-27T07:31:28.922Z,91.37
2022-11-27T07:33:58.519Z,76.80
2022-11-27T07:36:27.923Z,77.20
2022-11-27T07:38:56.181Z,88.63
2022-11-27T07:41:26.056Z,80.13
2022-11-27T07:43:57.483Z,89.73
2022-11-27T07:46:26.091Z,78.23
2022-11-27T07:48:54.229Z,80.83
2022-11-27T07:51:23.735Z,72.60
2022-11-27T07:53:52.652Z,72.40
2022-11-27T07:56:20.898Z,75.70
2022-11-27T07:58:48.978Z,80.83
2022-11-27T08:01:18.033Z,66.00
2022-11-27T08:03:46.286Z,65.90
2022-11-27T08:06:18.762Z,63.87
2022-11-27T08:08:48.192Z,60.67
2022-11-27T08:11:20.425Z,48.03
2022-11-27T08:13:48.607Z,57.03
2022-11-27T08:16:16.751Z,56.60
2022-11-27T08:18:44.886Z,61.87
2022-11-27T08:21:12.934Z,56.00
2022-11-27T08:23:41.057Z,57.17
2022-11-27T08:26:11.022Z,58.17
2022-11-27T08:28:39.096Z,62.07
2022-11-27T08:31:08.159Z,50.53
2022-11-27T08:33:36.313Z,51.63
2022-11-27T08:36:04.491Z,43.27
2022-11-27T08:38:32.589Z,41.73
2022-11-27T08:41:01.237Z,50.03
2022-11-27T08:43:30.919Z,46.70
2022-11-27T08:45:59.174Z,48.80
2022-11-27T08:48:27.371Z,46.83
2022-11-27T08:50:55.503Z,46.90
2022-11-27T08:53:23.614Z,50.17
2022-11-27T08:55:52.005Z,41.73
2022-11-27T08:58:20.084Z,38.97
2022-11-27T09:00:49.553Z,40.13
2022-11-27T09:03:17.693Z,37.57
2022-11-27T09:05:45.791Z,34.40
2022-11-27T09:08:20.242Z,32.67
2022-11-27T09:10:48.344Z,35.87
2022-11-27T09:13:16.391Z,37.27
2022-11-27T09:15:44.463Z,34.80
2022-11-27T09:18:13.894Z,28.83
2022-11-27T09:20:41.974Z,28.83
2022-11-27T09:23:14.241Z,31.27
2022-11-27T09:25:42.610Z,30.77
2022-11-27T09:28:10.709Z,26.10
2022-11-27T09:30:40.509Z,28.23
2022-11-27T09:33:08.601Z,28.90
2022-11-27T09:35:39.890Z,31.23
2022-11-27T09:38:08.089Z,26.83
2022-11-27T09:40:36.237Z,26.63
2022-11-27T09:43:08.110Z,28.93
2022-11-27T09:45:37.143Z,23.10
2022-11-27T09:48:06.646Z,25.00
2022-11-27T09:50:36.791Z,20.97
2022-11-27T09:53:08.101Z,24.03
2022-11-27T09:55:39.115Z,23.93
2022-11-27T09:58:08.473Z,22.47
2022-11-27T10:00:36.528Z,21.33
2022-11-27T10:03:04.671Z,25.20
2022-11-27T10:05:35.140Z,25.87
2022-11-27T10:08:11.773Z,26.27
2022-11-27T10:10:44.868Z,23.30
2022-11-27T10:13:19.967Z,20.97
2022-11-27T10:15:50.975Z,20.07
2022-11-27T10:18:23.056Z,21.10
2022-11-27T10:20:52.041Z,21.17
2022-11-27T10:23:28.213Z,20.37
2022-11-27T10:25:57.569Z,21.20
2022-11-27T10:28:30.010Z,19.10
2022-11-27T10:31:01.545Z,18.47
2022-11-27T10:33:35.941Z,16.80
2022-11-27T10:36:04.220Z,16.90
2022-11-27T10:38:34.440Z,18.17
2022-11-27T10:41:07.622Z,16.83
2022-11-27T10:43:36.103Z,17.20
2022-11-27T10:46:05.996Z,16.83
2022-11-27T10:48:34.627Z,20.23
2022-11-27T10:51:02.956Z,20.70
2022-11-27T10:53:33.420Z,16.87
2022-11-27T10:56:22.619Z,16.70
2022-11-27T10:58:53.308Z,17.17
2022-11-27T11:01:22.016Z,17.33
2022-11-27T11:03:50.218Z,16.90
2022-11-27T11:06:22.814Z,19.03
2022-11-27T11:09:02.378Z,19.73
2022-11-27T11:11:30.442Z,25.30
2022-11-27T11:13:58.683Z,19.77
2022-11-27T11:16:34.838Z,16.80
2022-11-27T11:19:03.929Z,15.47
2022-11-27T11:21:34.387Z,16.03
2022-11-27T11:24:05.063Z,16.07
2022-11-27T11:26:34.459Z,18.00
2022-11-27T11:29:03.937Z,15.43
2022-11-27T11:31:33.163Z,18.27
2022-11-27T11:34:03.010Z,15.13
2022-11-27T11:36:31.137Z,15.00
2022-11-27T11:38:59.287Z,12.53
2022-11-27T11:41:37.135Z,15.00
2022-11-27T11:44:05.394Z,13.13
2022-11-27T11:46:36.816Z,15.00
2022-11-27T11:49:08.452Z,14.63
2022-11-27T11:52:10.491Z,12.93
2022-11-27T11:54:49.154Z,14.07
2022-11-27T11:57:32.046Z,13.47
2022-11-27T12:00:01.993Z,8.87
2022-11-27T12:02:40.689Z,10.67
2022-11-27T12:05:17.056Z,10.00
2022-11-27T12:07:52.845Z,10.17
2022-11-27T12:10:23.635Z,7.47
2022-11-27T12:12:58.445Z,8.17
2022-11-27T12:15:29.372Z,9.57
2022-11-27T12:18:01.051Z,7.30
2022-11-27T12:20:35.110Z,7.60
2022-11-27T12:23:33.558Z,8.70
2022-11-27T12:26:06.586Z,9.20
2022-11-27T12:28:59.739Z,9.57
2022-11-27T12:31:38.940Z,9.27
2022-11-27T12:34:08.445Z,7.27
2022-11-27T12:37:02.214Z,11.33
2022-11-27T12:39:32.462Z,12.63
2022-11-27T12:42:02.736Z,7.57
2022-11-27T12:44:37.572Z,6.50
2022-11-27T12:47:08.484Z,5.67
2022-11-27T12:49:39.850Z,6.07
2022-11-27T12:52:11.247Z,7.57
2022-11-27T12:54:41.451Z,5.47
2022-11-27T12:57:12.603Z,5.93
2022-11-27T12:59:43.691Z,5.13
2022-11-27T13:02:19.938Z,5.00
2022-11-27T13:04:49.180Z,5.00
2022-11-27T13:07:19.870Z,4.03
2022-11-27T13:09:53.635Z,7.43
2022-11-27T13:12:24.004Z,5.77
2022-11-27T13:14:56.432Z,9.20
2022-11-27T13:17:24.629Z,11.87
2022-11-27T13:19:52.704Z,10.80
2022-11-27T13:22:27.554Z,11.87
2022-11-27T13:24:55.671Z,10.37
2022-11-27T13:27:24.929Z,12.73
2022-11-27T13:29:55.479Z,14.43
2022-11-27T13:32:24.680Z,12.63
2022-11-27T13:34:52.819Z,14.70
2022-11-27T13:37:30.017Z,13.70
2022-11-27T13:40:04.054Z,13.33
2022-11-27T13:42:34.032Z,14.07
2022-11-27T13:45:04.254Z,13.27
2022-11-27T13:47:37.708Z,13.13
2022-11-27T13:50:07.618Z,13.67
2022-11-27T13:52:35.847Z,11.80
2022-11-27T13:55:05.492Z,12.57
2022-11-27T13:57:34.438Z,12.30
2022-11-27T14:00:05.517Z,13.40
2022-11-27T14:02:44.096Z,12.03
2022-11-27T14:05:12.430Z,12.77
2022-11-27T14:07:42.449Z,11.03
2022-11-27T14:10:13.003Z,9.53
2022-11-27T14:12:41.094Z,10.70
2022-11-27T14:15:12.100Z,11.60
2022-11-27T14:17:41.771Z,8.93
2022-11-27T14:20:25.542Z,10.10
2022-11-27T14:25:42.216Z,10.43
2022-11-27T14:28:15.774Z,9.77
2022-11-27T14:30:47.754Z,11.37
2022-11-27T14:33:19.505Z,11.00
2022-11-27T14:35:50.055Z,15.13
2022-11-27T14:38:18.142Z,20.37
2022-11-27T14:40:46.374Z,17.93
2022-11-27T14:43:16.901Z,17.77
2022-11-27T14:45:47.679Z,17.37
2022-11-27T14:48:23.347Z,19.90
2022-11-27T14:50:51.670Z,20.27
2022-11-27T14:53:20.487Z,19.10
2022-11-27T14:55:49.311Z,20.43
2022-11-27T14:58:19.446Z,20.40
2022-11-27T15:00:57.628Z,19.83
2022-11-27T15:03:26.553Z,17.40
2022-11-27T15:05:56.359Z,14.97
2022-11-27T15:08:24.608Z,16.33
2022-11-27T15:10:54.803Z,14.63
2022-11-27T15:13:25.084Z,16.47
2022-11-27T15:16:00.184Z,15.13
2022-11-27T15:18:28.380Z,15.33
2022-11-27T15:20:56.441Z,16.40
2022-11-27T15:23:25.912Z,18.30
2022-11-27T15:26:08.316Z,18.27
2022-11-27T15:28:40.799Z,18.20
2022-11-27T15:31:27.464Z,18.97
2022-11-27T15:34:03.604Z,15.33
2022-11-27T15:36:39.856Z,12.97
2022-11-27T15:39:22.074Z,14.70
2022-11-27T15:41:57.787Z,16.10
2022-11-27T15:44:26.345Z,14.60
2022-11-27T15:46:56.115Z,13.63
2022-11-27T15:49:24.257Z,16.53
2022-11-27T15:51:52.404Z,16.73
2022-11-27T15:54:20.465Z,16.83
2022-11-27T15:56:48.632Z,16.90
2022-11-27T15:59:16.772Z,15.13
2022-11-27T16:01:44.922Z,15.63
2022-11-27T16:04:14.504Z,18.20
2022-11-27T16:06:42.676Z,19.43
2022-11-27T16:09:10.761Z,18.57
2022-11-27T16:11:38.876Z,18.90
2022-11-27T16:14:07.561Z,22.17
2022-11-27T16:16:36.263Z,22.47
2022-11-27T16:19:06.400Z,23.07
2022-11-27T16:21:36.029Z,22.77
2022-11-27T16:24:05.722Z,23.03
2022-11-27T16:26:33.877Z,19.93
2022-11-27T16:29:02.100Z,23.23
2022-11-27T16:31:30.261Z,24.37
2022-11-27T16:33:58.336Z,23.33
2022-11-27T16:36:26.468Z,28.30
2022-11-27T16:38:56.013Z,25.20
2022-11-27T16:41:24.976Z,23.73
2022-11-27T16:43:53.976Z,26.77
2022-11-27T16:46:23.056Z,22.70
2022-11-27T16:48:51.510Z,25.57
2022-11-27T16:51:20.430Z,24.43
2022-11-27T16:53:49.682Z,27.23
2022-11-27T16:56:20.028Z,26.30
2022-11-27T16:58:48.306Z,25.87
2022-11-27T17:01:17.581Z,24.43
2022-11-27T17:03:45.934Z,26.07
2022-11-27T17:06:15.199Z,28.10
2022-11-27T17:08:43.433Z,29.33
2022-11-27T17:11:11.856Z,29.43
2022-11-27T17:13:41.433Z,30.53
2022-11-27T17:16:09.814Z,32.70
2022-11-27T17:18:38.155Z,31.70
2022-11-27T17:21:07.502Z,34.33
2022-11-27T17:23:35.786Z,36.33
2022-11-27T17:26:08.366Z,40.40
2022-11-27T17:28:36.579Z,34.60
2022-11-27T17:31:10.011Z,38.27
2022-11-27T17:33:38.303Z,39.13
2022-11-27T17:36:07.501Z,40.57
2022-11-27T17:38:35.650Z,41.90
2022-11-27T17:41:04.219Z,43.60
2022-11-27T17:43:32.471Z,45.33
2022-11-27T17:46:00.619Z,48.87
2022-11-27T17:48:30.532Z,55.97
2022-11-27T17:50:58.604Z,53.70
2022-11-27T17:53:26.822Z,44.55
2022-11-27T17:55:55.547Z,46.83
2022-11-27T17:58:23.605Z,40.37
2022-11-27T18:00:51.793Z,42.53
2022-11-27T18:03:19.992Z,38.50
2022-11-27T18:05:49.564Z,36.97
2022-11-27T18:08:17.653Z,40.70
2022-11-27T18:10:45.714Z,35.77
2022-11-27T18:13:13.811Z,38.40
2022-11-27T18:15:44.072Z,38.90
2022-11-27T18:18:12.235Z,35.53
2022-11-27T18:20:40.297Z,37.97
2022-11-27T18:23:09.763Z,35.93
2022-11-27T18:25:46.067Z,40.37
2022-11-27T18:28:16.819Z,39.03
2022-11-27T18:30:44.951Z,38.00
2022-11-27T18:33:13.058Z,38.13
2022-11-27T18:35:42.527Z,38.73
2022-11-27T18:38:12.001Z,44.00
2022-11-27T18:40:41.693Z,42.37
2022-11-27T18:43:10.973Z,42.80
2022-11-27T18:45:39.263Z,44.90
2022-11-27T18:48:07.754Z,40.27
2022-11-27T18:50:35.869Z,43.87
2022-11-27T18:53:04.063Z,40.03
2022-11-27T18:55:35.941Z,44.77
2022-11-27T18:58:04.058Z,41.03
2022-11-27T19:00:32.159Z,43.43
2022-11-27T19:03:00.372Z,46.13
2022-11-27T19:05:28.607Z,46.70
2022-11-27T19:07:56.798Z,47.50
2022-11-27T19:10:24.990Z,46.07
2022-11-27T19:12:54.461Z,46.27
2022-11-27T19:15:22.622Z,44.93
2022-11-27T19:17:50.827Z,46.10
2022-11-27T19:20:19.615Z,44.60
2022-11-27T19:22:47.721Z,44.47
2022-11-27T19:25:15.941Z,49.67
2022-11-27T19:27:44.053Z,46.53
2022-11-27T19:30:14.584Z,48.87
2022-11-27T19:32:42.709Z,50.47
2022-11-27T19:35:11.011Z,49.10
2022-11-27T19:37:39.090Z,53.43
2022-11-27T19:40:08.599Z,48.23
2022-11-27T19:42:36.668Z,52.93
2022-11-27T19:45:05.074Z,48.17
2022-11-27T19:47:34.623Z,49.03
2022-11-27T19:50:02.766Z,55.87
2022-11-27T19:52:31.074Z,57.27
2022-11-27T19:54:59.243Z,57.33
2022-11-27T19:57:28.376Z,51.00
2022-11-27T19:59:56.767Z,51.70
2022-11-27T20:02:25.191Z,53.93
2022-11-27T20:04:54.844Z,56.10
2022-11-27T20:07:22.997Z,50.27
2022-11-27T20:09:52.337Z,59.63
2022-11-27T20:12:20.597Z,57.33
2022-11-27T20:14:48.805Z,56.03
2022-11-27T20:17:16.946Z,58.93
2022-11-27T20:19:45.125Z,53.70
2022-11-27T20:22:14.595Z,57.17
2022-11-27T20:25:04.012Z,54.97
2022-11-27T20:27:30.876Z,51.70
2022-11-27T20:30:00.197Z,57.10
2022-11-27T20:32:28.433Z,60.27
2022-11-27T20:34:56.574Z,55.73
2022-11-27T20:37:26.285Z,59.33
2022-11-27T20:39:54.334Z,61.13
2022-11-27T20:42:24.557Z,61.07
2022-11-27T20:44:52.751Z,59.20
2022-11-27T20:47:20.896Z,55.23
2022-11-27T20:49:49.058Z,52.83
2022-11-27T20:52:17.290Z,60.03
2022-11-27T20:54:46.717Z,54.73
2022-11-27T20:57:15.052Z,61.77
2022-11-27T20:59:43.865Z,63.80
2022-11-27T21:02:12.487Z,58.97
2022-11-27T21:04:40.723Z,62.70
2022-11-27T21:07:08.893Z,56.67
2022-11-27T21:09:36.965Z,54.87
2022-11-27T21:12:07.007Z,57.67
2022-11-27T21:14:36.018Z,58.40
2022-11-27T21:17:05.214Z,54.10
2022-11-27T21:19:33.552Z,51.60
2022-11-27T21:22:01.748Z,54.57
2022-11-27T21:24:30.002Z,51.90
2022-11-27T21:26:58.239Z,51.10
2022-11-27T21:29:28.538Z,55.63
2022-11-27T21:31:57.332Z,52.00
2022-11-27T21:34:25.538Z,55.83
2022-11-27T21:36:53.753Z,55.93
2022-11-27T21:39:21.905Z,56.27
2022-11-27T21:41:50.599Z,52.43
2022-11-27T21:44:18.899Z,54.87
2022-11-27T21:46:48.539Z,52.43
2022-11-27T21:49:17.243Z,49.83
2022-11-27T21:51:45.375Z,47.53
2022-11-27T21:54:14.904Z,51.70
2022-11-27T21:56:43.009Z,51.17
2022-11-27T21:59:14.363Z,50.43
2022-11-27T22:01:42.616Z,51.47
2022-11-27T22:04:12.101Z,50.20
2022-11-27T22:06:41.357Z,52.97
2022-11-27T22:09:14.947Z,51.43
2022-11-27T22:11:43.713Z,52.20
2022-11-27T22:14:11.789Z,51.80
2022-11-27T22:16:44.898Z,53.67
2022-11-27T22:19:15.637Z,48.40
2022-11-27T22:21:43.992Z,50.77
2022-11-27T22:24:16.852Z,53.70
2022-11-27T22:26:46.800Z,53.97
2022-11-27T22:29:14.910Z,54.20
2022-11-27T22:31:42.935Z,50.83
2022-11-27T22:34:11.020Z,52.60
2022-11-27T22:36:40.439Z,52.23
2022-11-27T22:39:08.876Z,51.67
2022-11-27T22:41:37.615Z,55.33
2022-11-27T22:44:06.907Z,53.30
2022-11-27T22:46:35.683Z,53.53
2022-11-27T22:49:04.871Z,54.13
2022-11-27T22:51:33.737Z,55.60
2022-11-27T22:54:03.619Z,50.57
2022-11-27T22:56:33.734Z,59.07
2022-11-27T22:59:30.405Z,54.47
2022-11-27T23:01:50.190Z,50.40
2022-11-27T23:04:18.545Z,53.70
2022-11-27T23:06:48.468Z,53.93
2022-11-27T23:09:19.010Z,55.67
2022-11-27T23:11:47.175Z,56.63
2022-11-27T23:14:15.238Z,53.23
2022-11-27T23:16:43.438Z,53.50
2022-11-27T23:19:11.795Z,49.37
2022-11-27T23:21:40.089Z,57.17
2022-11-27T23:24:09.519Z,56.27
2022-11-27T23:26:38.947Z,55.27
2022-11-27T23:29:07.109Z,56.10
2022-11-27T23:31:36.308Z,56.87
2022-11-27T23:34:05.651Z,51.57
2022-11-27T23:36:34.071Z,54.20
2022-11-27T23:39:02.347Z,52.40
2022-11-27T23:41:30.402Z,51.83
2022-11-27T23:43:59.854Z,50.47
2022-11-27T23:46:28.976Z,51.27
2022-11-27T23:48:57.669Z,55.33
2022-11-27T23:51:27.356Z,52.00
2022-11-27T23:53:55.480Z,51.23
2022-11-27T23:56:24.240Z,46.80
2022-11-27T23:58:52.345Z,48.27
